sensor_id;sensor_type;location;lat;lon;timestamp;temperature;humidity
20590;DHT22;10453;50.810;12.540;2023-03-01T00:01:13;-4.30;99.90
20590;DHT22;10453;50.810;12.540;2023-03-01T00:05:30;-4.40;99.90
20590;DHT22;10453;50.810;12.540;2023-03-01T00:09:47;-4.40;99.90
20590;DHT22;10453;50.810;12.540;2023-03-01T00:14:04;-4.40;99.90
20590;DHT22;10453;50.810;12.540;2023-03-01T00:18:22;-4.50;99.90
20590;DHT22;10453;50.810;12.540;2023-03-01T00:22:39;-4.50;99.90
20590;DHT22;10453;50.810;12.540;2023-03-01T00:26:56;-4.60;99.90
20590;DHT22;10453;50.810;12.540;2023-03-01T00:31:20;-4.60;99.90
20590;DHT22;10453;50.810;12.540;2023-03-01T00:35:37;-4.70;99.90
20590;DHT22;10453;50.810;12.540;2023-03-01T00:39:55;-4.80;99.90
20590;DHT22;10453;50.810;12.540;2023-03-01T00:44:12;-4.80;99.90
20590;DHT22;10453;50.810;12.540;2023-03-01T00:48:29;-4.80;99.90
20590;DHT22;10453;50.810;12.540;2023-03-01T00:52:46;-4.90;99.90
20590;DHT22;10453;50.810;12.540;2023-03-01T00:57:03;-4.90;99.90
20590;DHT22;10453;50.810;12.540;2023-03-01T01:01:24;-5.00;99.90
20590;DHT22;10453;50.810;12.540;2023-03-01T01:05:44;-5.00;99.90
20590;DHT22;10453;50.810;12.540;2023-03-01T01:10:02;-5.10;99.90
20590;DHT22;10453;50.810;12.540;2023-03-01T01:14:19;-5.10;99.90
20590;DHT22;10453;50.810;12.540;2023-03-01T01:18:37;-5.20;99.90
20590;DHT22;10453;50.810;12.540;2023-03-01T01:22:54;-5.20;99.90
20590;DHT22;10453;50.810;12.540;2023-03-01T01:27:11;-5.20;99.90
20590;DHT22;10453;50.810;12.540;2023-03-01T01:31:29;-5.30;99.90
20590;DHT22;10453;50.810;12.540;2023-03-01T01:35:46;-5.30;99.90
20590;DHT22;10453;50.810;12.540;2023-03-01T01:40:05;-5.40;99.90
20590;DHT22;10453;50.810;12.540;2023-03-01T01:44:25;-5.40;99.90
20590;DHT22;10453;50.810;12.540;2023-03-01T01:48:54;-5.40;99.90
20590;DHT22;10453;50.810;12.540;2023-03-01T01:53:17;-5.40;99.90
20590;DHT22;10453;50.810;12.540;2023-03-01T01:57:36;-5.40;99.90
20590;DHT22;10453;50.810;12.540;2023-03-01T02:01:54;-5.50;99.90
20590;DHT22;10453;50.810;12.540;2023-03-01T02:06:37;-5.50;99.90
20590;DHT22;10453;50.810;12.540;2023-03-01T02:10:55;-5.50;99.90
20590;DHT22;10453;50.810;12.540;2023-03-01T02:15:13;-5.50;99.90
20590;DHT22;10453;50.810;12.540;2023-03-01T02:19:49;-5.70;99.90
20590;DHT22;10453;50.810;12.540;2023-03-01T02:29:04;-5.70;99.90
20590;DHT22;10453;50.810;12.540;2023-03-01T02:33:22;-5.80;99.90
20590;DHT22;10453;50.810;12.540;2023-03-01T02:37:41;-5.80;99.90
20590;DHT22;10453;50.810;12.540;2023-03-01T02:41:59;-5.80;99.90
20590;DHT22;10453;50.810;12.540;2023-03-01T02:46:24;-5.80;99.90
20590;DHT22;10453;50.810;12.540;2023-03-01T02:51:14;-5.80;99.90
20590;DHT22;10453;50.810;12.540;2023-03-01T02:55:36;-5.80;99.90
20590;DHT22;10453;50.810;12.540;2023-03-01T03:00:02;-5.80;99.90
20590;DHT22;10453;50.810;12.540;2023-03-01T03:04:23;-5.90;99.90
20590;DHT22;10453;50.810;12.540;2023-03-01T03:08:41;-5.90;99.90
20590;DHT22;10453;50.810;12.540;2023-03-01T03:13:01;-5.90;99.90
20590;DHT22;10453;50.810;12.540;2023-03-01T03:17:18;-6.00;99.90
20590;DHT22;10453;50.810;12.540;2023-03-01T03:21:38;-6.00;99.90
20590;DHT22;10453;50.810;12.540;2023-03-01T03:25:55;-6.10;99.90
20590;DHT22;10453;50.810;12.540;2023-03-01T03:30:16;-6.10;99.90
20590;DHT22;10453;50.810;12.540;2023-03-01T03:34:34;-6.10;99.90
20590;DHT22;10453;50.810;12.540;2023-03-01T03:38:51;-6.10;99.90
20590;DHT22;10453;50.810;12.540;2023-03-01T03:43:11;-6.10;99.90
20590;DHT22;10453;50.810;12.540;2023-03-01T03:47:29;-6.10;99.90
20590;DHT22;10453;50.810;12.540;2023-03-01T03:51:46;-6.10;99.90
20590;DHT22;10453;50.810;12.540;2023-03-01T03:56:03;-6.10;99.90
20590;DHT22;10453;50.810;12.540;2023-03-01T04:00:22;-6.20;99.90
20590;DHT22;10453;50.810;12.540;2023-03-01T04:04:40;-6.30;99.90
20590;DHT22;10453;50.810;12.540;2023-03-01T04:08:57;-6.30;99.90
20590;DHT22;10453;50.810;12.540;2023-03-01T04:13:19;-6.30;99.90
20590;DHT22;10453;50.810;12.540;2023-03-01T04:17:37;-6.40;99.90
20590;DHT22;10453;50.810;12.540;2023-03-01T04:21:54;-6.40;99.90
20590;DHT22;10453;50.810;12.540;2023-03-01T04:26:11;-6.50;99.90
20590;DHT22;10453;50.810;12.540;2023-03-01T04:30:28;-6.50;99.90
20590;DHT22;10453;50.810;12.540;2023-03-01T04:34:45;-6.40;99.90
20590;DHT22;10453;50.810;12.540;2023-03-01T04:39:03;-6.50;99.90
20590;DHT22;10453;50.810;12.540;2023-03-01T04:43:29;-6.50;99.90
20590;DHT22;10453;50.810;12.540;2023-03-01T04:47:46;-6.50;99.90
20590;DHT22;10453;50.810;12.540;2023-03-01T04:52:04;-6.60;99.90
20590;DHT22;10453;50.810;12.540;2023-03-01T04:56:22;-6.40;99.90
20590;DHT22;10453;50.810;12.540;2023-03-01T05:00:39;-6.40;99.90
20590;DHT22;10453;50.810;12.540;2023-03-01T05:04:57;-6.60;99.90
20590;DHT22;10453;50.810;12.540;2023-03-01T05:09:14;-6.60;99.90
20590;DHT22;10453;50.810;12.540;2023-03-01T05:13:31;-6.60;99.90
20590;DHT22;10453;50.810;12.540;2023-03-01T05:17:49;-6.60;99.90
20590;DHT22;10453;50.810;12.540;2023-03-01T05:22:06;-6.70;99.90
20590;DHT22;10453;50.810;12.540;2023-03-01T05:26:23;-6.60;99.90
20590;DHT22;10453;50.810;12.540;2023-03-01T05:30:46;-6.60;99.90
20590;DHT22;10453;50.810;12.540;2023-03-01T05:35:03;-6.70;99.90
20590;DHT22;10453;50.810;12.540;2023-03-01T05:39:23;-6.80;99.90
20590;DHT22;10453;50.810;12.540;2023-03-01T05:43:40;-6.80;99.90
20590;DHT22;10453;50.810;12.540;2023-03-01T05:48:00;-6.80;99.90
20590;DHT22;10453;50.810;12.540;2023-03-01T05:52:17;-6.70;99.90
20590;DHT22;10453;50.810;12.540;2023-03-01T05:56:36;-6.70;99.90
20590;DHT22;10453;50.810;12.540;2023-03-01T06:00:53;-6.80;99.90
20590;DHT22;10453;50.810;12.540;2023-03-01T06:05:13;-6.80;99.90
20590;DHT22;10453;50.810;12.540;2023-03-01T06:09:31;-6.60;99.90
20590;DHT22;10453;50.810;12.540;2023-03-01T06:13:48;-6.70;99.90
20590;DHT22;10453;50.810;12.540;2023-03-01T06:18:05;-6.50;99.90
20590;DHT22;10453;50.810;12.540;2023-03-01T06:22:22;-6.60;99.90
20590;DHT22;10453;50.810;12.540;2023-03-01T06:26:39;-6.60;99.90
20590;DHT22;10453;50.810;12.540;2023-03-01T06:30:56;-6.60;99.90
20590;DHT22;10453;50.810;12.540;2023-03-01T06:35:15;-6.60;99.90
20590;DHT22;10453;50.810;12.540;2023-03-01T06:39:34;-6.50;99.90
20590;DHT22;10453;50.810;12.540;2023-03-01T06:43:51;-6.40;99.90
20590;DHT22;10453;50.810;12.540;2023-03-01T06:48:09;-6.30;99.90
20590;DHT22;10453;50.810;12.540;2023-03-01T06:52:26;-6.30;99.90
20590;DHT22;10453;50.810;12.540;2023-03-01T06:56:46;-6.30;99.90
20590;DHT22;10453;50.810;12.540;2023-03-01T07:01:09;-6.10;99.90
20590;DHT22;10453;50.810;12.540;2023-03-01T07:05:26;-5.90;99.90
20590;DHT22;10453;50.810;12.540;2023-03-01T07:09:48;-5.80;99.90
20590;DHT22;10453;50.810;12.540;2023-03-01T07:14:05;-5.70;99.90
20590;DHT22;10453;50.810;12.540;2023-03-01T07:18:24;-5.50;99.90
20590;DHT22;10453;50.810;12.540;2023-03-01T07:22:41;-5.40;99.90
20590;DHT22;10453;50.810;12.540;2023-03-01T07:26:59;-5.30;99.90
20590;DHT22;10453;50.810;12.540;2023-03-01T07:31:16;-5.20;99.90
20590;DHT22;10453;50.810;12.540;2023-03-01T07:35:33;-5.10;99.90
20590;DHT22;10453;50.810;12.540;2023-03-01T07:39:50;-4.90;99.90
20590;DHT22;10453;50.810;12.540;2023-03-01T07:44:07;-4.70;99.90
20590;DHT22;10453;50.810;12.540;2023-03-01T07:48:24;-4.60;99.90
20590;DHT22;10453;50.810;12.540;2023-03-01T07:52:41;-4.30;99.90
20590;DHT22;10453;50.810;12.540;2023-03-01T07:56:59;-4.10;99.90
20590;DHT22;10453;50.810;12.540;2023-03-01T08:01:19;-3.80;99.90
20590;DHT22;10453;50.810;12.540;2023-03-01T08:05:36;-3.50;99.90
20590;DHT22;10453;50.810;12.540;2023-03-01T08:09:53;-3.30;99.90
20590;DHT22;10453;50.810;12.540;2023-03-01T08:14:10;-2.80;99.90
20590;DHT22;10453;50.810;12.540;2023-03-01T08:18:27;-2.60;99.90
20590;DHT22;10453;50.810;12.540;2023-03-01T08:22:44;-2.50;99.90
20590;DHT22;10453;50.810;12.540;2023-03-01T08:27:03;-2.60;99.90
20590;DHT22;10453;50.810;12.540;2023-03-01T08:31:22;-2.40;99.90
20590;DHT22;10453;50.810;12.540;2023-03-01T08:35:40;-2.10;99.90
20590;DHT22;10453;50.810;12.540;2023-03-01T08:39:57;-2.00;99.90
20590;DHT22;10453;50.810;12.540;2023-03-01T08:44:15;-1.70;99.90
20590;DHT22;10453;50.810;12.540;2023-03-01T08:48:36;-1.40;99.90
20590;DHT22;10453;50.810;12.540;2023-03-01T08:52:53;-1.40;99.90
20590;DHT22;10453;50.810;12.540;2023-03-01T08:57:10;-1.10;99.90
20590;DHT22;10453;50.810;12.540;2023-03-01T09:01:27;-1.00;99.90
20590;DHT22;10453;50.810;12.540;2023-03-01T09:05:44;-0.50;99.90
20590;DHT22;10453;50.810;12.540;2023-03-01T09:10:03;-0.30;99.90
20590;DHT22;10453;50.810;12.540;2023-03-01T09:14:20;0.00;99.90
20590;DHT22;10453;50.810;12.540;2023-03-01T09:18:37;0.40;99.90
20590;DHT22;10453;50.810;12.540;2023-03-01T09:22:54;0.60;99.90
20590;DHT22;10453;50.810;12.540;2023-03-01T09:27:11;0.60;99.90
20590;DHT22;10453;50.810;12.540;2023-03-01T09:31:29;0.80;99.90
20590;DHT22;10453;50.810;12.540;2023-03-01T09:35:46;1.40;99.90
20590;DHT22;10453;50.810;12.540;2023-03-01T09:40:06;1.40;99.90
20590;DHT22;10453;50.810;12.540;2023-03-01T09:44:38;1.40;99.90
20590;DHT22;10453;50.810;12.540;2023-03-01T09:49:00;1.80;99.90
20590;DHT22;10453;50.810;12.540;2023-03-01T09:53:22;2.30;99.90
20590;DHT22;10453;50.810;12.540;2023-03-01T09:57:50;2.70;99.90
20590;DHT22;10453;50.810;12.540;2023-03-01T10:07:26;2.80;99.90
20590;DHT22;10453;50.810;12.540;2023-03-01T10:11:52;3.30;99.90
20590;DHT22;10453;50.810;12.540;2023-03-01T10:16:16;3.50;99.90
20590;DHT22;10453;50.810;12.540;2023-03-01T10:20:59;3.60;99.90
20590;DHT22;10453;50.810;12.540;2023-03-01T10:30:16;4.10;99.90
20590;DHT22;10453;50.810;12.540;2023-03-01T10:34:37;4.40;99.90
20590;DHT22;10453;50.810;12.540;2023-03-01T10:38:56;4.40;99.90
20590;DHT22;10453;50.810;12.540;2023-03-01T10:43:14;4.20;99.90
20590;DHT22;10453;50.810;12.540;2023-03-01T10:47:31;4.80;99.90
20590;DHT22;10453;50.810;12.540;2023-03-01T10:51:51;6.20;99.90
20590;DHT22;10453;50.810;12.540;2023-03-01T10:56:10;7.30;99.90
20590;DHT22;10453;50.810;12.540;2023-03-01T11:00:30;8.50;95.20
20590;DHT22;10453;50.810;12.540;2023-03-01T11:05:18;8.10;91.30
20590;DHT22;10453;50.810;12.540;2023-03-01T11:09:36;8.70;90.00
20590;DHT22;10453;50.810;12.540;2023-03-01T11:14:17;8.00;91.70
20590;DHT22;10453;50.810;12.540;2023-03-01T11:23:25;8.50;88.20
20590;DHT22;10453;50.810;12.540;2023-03-01T11:27:45;8.40;87.90
20590;DHT22;10453;50.810;12.540;2023-03-01T11:32:07;7.50;83.90
20590;DHT22;10453;50.810;12.540;2023-03-01T11:37:02;7.70;86.50
20590;DHT22;10453;50.810;12.540;2023-03-01T11:41:26;8.10;86.70
20590;DHT22;10453;50.810;12.540;2023-03-01T11:46:21;8.80;82.90
20590;DHT22;10453;50.810;12.540;2023-03-01T11:50:47;9.40;80.90
20590;DHT22;10453;50.810;12.540;2023-03-01T11:55:24;9.80;80.70
20590;DHT22;10453;50.810;12.540;2023-03-01T12:18:43;10.20;77.40
20590;DHT22;10453;50.810;12.540;2023-03-01T12:24:00;10.80;73.00
20590;DHT22;10453;50.810;12.540;2023-03-01T12:28:06;10.10;73.80
20590;DHT22;10453;50.810;12.540;2023-03-01T12:32:42;10.40;75.10
20590;DHT22;10453;50.810;12.540;2023-03-01T12:37:20;10.70;71.10
20590;DHT22;10453;50.810;12.540;2023-03-01T12:41:47;10.10;72.60
20590;DHT22;10453;50.810;12.540;2023-03-01T12:46:32;9.70;75.00
20590;DHT22;10453;50.810;12.540;2023-03-01T12:50:53;10.00;73.40
20590;DHT22;10453;50.810;12.540;2023-03-01T12:55:29;9.10;73.10
20590;DHT22;10453;50.810;12.540;2023-03-01T13:00:17;8.70;75.40
20590;DHT22;10453;50.810;12.540;2023-03-01T13:05:19;8.20;81.30
20590;DHT22;10453;50.810;12.540;2023-03-01T13:09:41;6.60;80.90
20590;DHT22;10453;50.810;12.540;2023-03-01T13:18:42;5.50;90.30
20590;DHT22;10453;50.810;12.540;2023-03-01T13:23:03;5.20;92.30
20590;DHT22;10453;50.810;12.540;2023-03-01T13:27:23;5.20;94.30
20590;DHT22;10453;50.810;12.540;2023-03-01T13:36:00;5.30;96.70
20590;DHT22;10453;50.810;12.540;2023-03-01T13:44:42;5.30;96.70
20590;DHT22;10453;50.810;12.540;2023-03-01T13:49:00;5.20;98.10
20590;DHT22;10453;50.810;12.540;2023-03-01T13:53:21;5.30;99.90
20590;DHT22;10453;50.810;12.540;2023-03-01T13:57:39;5.30;99.90
20590;DHT22;10453;50.810;12.540;2023-03-01T14:01:59;5.30;99.90
20590;DHT22;10453;50.810;12.540;2023-03-01T14:06:20;5.10;99.90
20590;DHT22;10453;50.810;12.540;2023-03-01T14:10:49;5.10;99.90
20590;DHT22;10453;50.810;12.540;2023-03-01T14:15:34;5.10;99.90
20590;DHT22;10453;50.810;12.540;2023-03-01T14:19:58;5.20;99.90
20590;DHT22;10453;50.810;12.540;2023-03-01T14:24:21;5.20;99.90
20590;DHT22;10453;50.810;12.540;2023-03-01T14:28:39;5.10;99.90
20590;DHT22;10453;50.810;12.540;2023-03-01T14:33:04;5.10;99.90
20590;DHT22;10453;50.810;12.540;2023-03-01T14:37:33;5.00;99.90
20590;DHT22;10453;50.810;12.540;2023-03-01T14:41:51;5.10;99.90
20590;DHT22;10453;50.810;12.540;2023-03-01T14:46:41;5.10;99.90
20590;DHT22;10453;50.810;12.540;2023-03-01T14:50:59;5.20;99.90
20590;DHT22;10453;50.810;12.540;2023-03-01T14:55:20;5.10;99.90
20590;DHT22;10453;50.810;12.540;2023-03-01T14:59:38;5.00;99.90
20590;DHT22;10453;50.810;12.540;2023-03-01T15:03:55;5.00;99.90
20590;DHT22;10453;50.810;12.540;2023-03-01T15:08:24;5.00;99.90
20590;DHT22;10453;50.810;12.540;2023-03-01T15:12:42;5.00;99.30
20590;DHT22;10453;50.810;12.540;2023-03-01T15:16:59;4.90;99.90
20590;DHT22;10453;50.810;12.540;2023-03-01T15:25:36;4.90;99.90
20590;DHT22;10453;50.810;12.540;2023-03-01T15:29:59;4.80;99.90
20590;DHT22;10453;50.810;12.540;2023-03-01T15:34:23;4.80;99.90
20590;DHT22;10453;50.810;12.540;2023-03-01T15:38:56;4.70;99.90
20590;DHT22;10453;50.810;12.540;2023-03-01T15:43:41;4.60;99.90
20590;DHT22;10453;50.810;12.540;2023-03-01T15:48:01;4.70;99.90
20590;DHT22;10453;50.810;12.540;2023-03-01T15:52:43;4.60;99.90
20590;DHT22;10453;50.810;12.540;2023-03-01T15:57:00;4.60;99.90
20590;DHT22;10453;50.810;12.540;2023-03-01T16:01:17;4.50;99.90
20590;DHT22;10453;50.810;12.540;2023-03-01T16:05:35;4.40;99.90
20590;DHT22;10453;50.810;12.540;2023-03-01T16:09:53;4.30;99.90
20590;DHT22;10453;50.810;12.540;2023-03-01T16:14:10;4.20;99.90
20590;DHT22;10453;50.810;12.540;2023-03-01T16:18:27;4.10;99.90
20590;DHT22;10453;50.810;12.540;2023-03-01T16:22:45;4.10;99.90
20590;DHT22;10453;50.810;12.540;2023-03-01T16:27:02;3.90;99.90
20590;DHT22;10453;50.810;12.540;2023-03-01T16:31:20;3.70;99.90
20590;DHT22;10453;50.810;12.540;2023-03-01T16:35:41;3.50;99.90
20590;DHT22;10453;50.810;12.540;2023-03-01T16:40:00;3.40;99.90
20590;DHT22;10453;50.810;12.540;2023-03-01T16:44:17;3.10;99.90
20590;DHT22;10453;50.810;12.540;2023-03-01T16:48:34;2.90;99.90
20590;DHT22;10453;50.810;12.540;2023-03-01T16:52:51;2.70;99.90
20590;DHT22;10453;50.810;12.540;2023-03-01T16:57:08;2.50;99.90
20590;DHT22;10453;50.810;12.540;2023-03-01T17:01:25;2.30;99.90
20590;DHT22;10453;50.810;12.540;2023-03-01T17:05:43;2.10;99.90
20590;DHT22;10453;50.810;12.540;2023-03-01T17:10:01;2.00;99.90
20590;DHT22;10453;50.810;12.540;2023-03-01T17:14:18;1.80;99.90
20590;DHT22;10453;50.810;12.540;2023-03-01T17:18:35;1.70;99.90
20590;DHT22;10453;50.810;12.540;2023-03-01T17:22:52;1.50;99.90
20590;DHT22;10453;50.810;12.540;2023-03-01T17:27:11;1.30;99.90
20590;DHT22;10453;50.810;12.540;2023-03-01T17:31:29;1.20;99.90
20590;DHT22;10453;50.810;12.540;2023-03-01T17:35:48;1.10;99.90
20590;DHT22;10453;50.810;12.540;2023-03-01T17:40:06;0.80;99.90
20590;DHT22;10453;50.810;12.540;2023-03-01T17:44:23;0.70;99.90
20590;DHT22;10453;50.810;12.540;2023-03-01T17:48:41;0.60;99.90
20590;DHT22;10453;50.810;12.540;2023-03-01T17:52:58;0.50;99.90
20590;DHT22;10453;50.810;12.540;2023-03-01T17:57:15;0.40;99.90
20590;DHT22;10453;50.810;12.540;2023-03-01T18:01:32;0.30;99.90
20590;DHT22;10453;50.810;12.540;2023-03-01T18:05:51;0.20;99.90
20590;DHT22;10453;50.810;12.540;2023-03-01T18:10:09;0.20;99.90
20590;DHT22;10453;50.810;12.540;2023-03-01T18:14:26;0.10;99.90
20590;DHT22;10453;50.810;12.540;2023-03-01T18:18:54;0.00;99.90
20590;DHT22;10453;50.810;12.540;2023-03-01T18:23:11;0.00;99.90
20590;DHT22;10453;50.810;12.540;2023-03-01T18:27:28;-0.20;99.90
20590;DHT22;10453;50.810;12.540;2023-03-01T18:31:46;-0.30;99.90
20590;DHT22;10453;50.810;12.540;2023-03-01T18:36:05;-0.50;99.90
20590;DHT22;10453;50.810;12.540;2023-03-01T18:40:31;-0.70;99.90
20590;DHT22;10453;50.810;12.540;2023-03-01T18:44:48;-0.70;99.90
20590;DHT22;10453;50.810;12.540;2023-03-01T18:49:07;-0.80;99.90
20590;DHT22;10453;50.810;12.540;2023-03-01T18:53:24;-0.80;99.90
20590;DHT22;10453;50.810;12.540;2023-03-01T18:57:41;-0.90;99.90
20590;DHT22;10453;50.810;12.540;2023-03-01T19:01:58;-1.00;99.90
20590;DHT22;10453;50.810;12.540;2023-03-01T19:06:16;-1.00;99.90
20590;DHT22;10453;50.810;12.540;2023-03-01T19:10:34;-1.00;99.90
20590;DHT22;10453;50.810;12.540;2023-03-01T19:14:51;-1.20;99.90
20590;DHT22;10453;50.810;12.540;2023-03-01T19:19:13;-1.10;99.90
20590;DHT22;10453;50.810;12.540;2023-03-01T19:23:31;-1.30;99.90
20590;DHT22;10453;50.810;12.540;2023-03-01T19:27:51;-1.30;99.90
20590;DHT22;10453;50.810;12.540;2023-03-01T19:32:08;-1.40;99.90
20590;DHT22;10453;50.810;12.540;2023-03-01T19:36:25;-1.50;99.90
20590;DHT22;10453;50.810;12.540;2023-03-01T19:40:49;-1.40;99.90
20590;DHT22;10453;50.810;12.540;2023-03-01T19:45:07;-1.50;99.90
20590;DHT22;10453;50.810;12.540;2023-03-01T19:49:25;-1.60;99.90
20590;DHT22;10453;50.810;12.540;2023-03-01T19:53:42;-1.60;99.90
20590;DHT22;10453;50.810;12.540;2023-03-01T19:58:00;-1.60;99.90
20590;DHT22;10453;50.810;12.540;2023-03-01T20:02:17;-1.70;99.90
20590;DHT22;10453;50.810;12.540;2023-03-01T20:06:36;-1.80;99.90
20590;DHT22;10453;50.810;12.540;2023-03-01T20:11:01;-1.90;99.90
20590;DHT22;10453;50.810;12.540;2023-03-01T20:15:18;-1.90;99.90
20590;DHT22;10453;50.810;12.540;2023-03-01T20:19:36;-1.90;99.90
20590;DHT22;10453;50.810;12.540;2023-03-01T20:23:53;-1.90;99.90
20590;DHT22;10453;50.810;12.540;2023-03-01T20:28:11;-1.90;99.90
20590;DHT22;10453;50.810;12.540;2023-03-01T20:32:30;-2.00;99.90
20590;DHT22;10453;50.810;12.540;2023-03-01T20:36:47;-2.00;99.90
20590;DHT22;10453;50.810;12.540;2023-03-01T20:41:07;-2.00;99.90
20590;DHT22;10453;50.810;12.540;2023-03-01T20:45:25;-2.10;99.90
20590;DHT22;10453;50.810;12.540;2023-03-01T20:49:44;-2.20;99.90
20590;DHT22;10453;50.810;12.540;2023-03-01T20:54:01;-2.20;99.90
20590;DHT22;10453;50.810;12.540;2023-03-01T20:58:19;-2.30;99.90
20590;DHT22;10453;50.810;12.540;2023-03-01T21:02:36;-2.30;99.90
20590;DHT22;10453;50.810;12.540;2023-03-01T21:06:54;-2.40;99.90
20590;DHT22;10453;50.810;12.540;2023-03-01T21:11:11;-2.50;99.90
20590;DHT22;10453;50.810;12.540;2023-03-01T21:15:29;-2.40;99.90
20590;DHT22;10453;50.810;12.540;2023-03-01T21:19:46;-2.40;99.90
20590;DHT22;10453;50.810;12.540;2023-03-01T21:24:03;-2.40;99.90
20590;DHT22;10453;50.810;12.540;2023-03-01T21:28:20;-2.60;99.90
20590;DHT22;10453;50.810;12.540;2023-03-01T21:32:37;-2.60;99.90
20590;DHT22;10453;50.810;12.540;2023-03-01T21:36:55;-2.60;99.90
20590;DHT22;10453;50.810;12.540;2023-03-01T21:45:30;-2.70;99.90
20590;DHT22;10453;50.810;12.540;2023-03-01T21:49:50;-2.80;99.90
20590;DHT22;10453;50.810;12.540;2023-03-01T21:54:08;-2.80;99.90
20590;DHT22;10453;50.810;12.540;2023-03-01T21:58:28;-2.70;99.90
20590;DHT22;10453;50.810;12.540;2023-03-01T22:02:47;-2.80;99.90
20590;DHT22;10453;50.810;12.540;2023-03-01T22:07:04;-2.90;99.90
20590;DHT22;10453;50.810;12.540;2023-03-01T22:11:23;-2.90;99.90
20590;DHT22;10453;50.810;12.540;2023-03-01T22:15:42;-2.90;99.90
20590;DHT22;10453;50.810;12.540;2023-03-01T22:19:59;-2.90;99.90
20590;DHT22;10453;50.810;12.540;2023-03-01T22:24:19;-2.90;99.90
20590;DHT22;10453;50.810;12.540;2023-03-01T22:28:36;-2.90;99.90
20590;DHT22;10453;50.810;12.540;2023-03-01T22:32:53;-3.00;99.90
20590;DHT22;10453;50.810;12.540;2023-03-01T22:37:11;-3.00;99.90
20590;DHT22;10453;50.810;12.540;2023-03-01T22:41:31;-3.00;99.90
20590;DHT22;10453;50.810;12.540;2023-03-01T22:45:48;-3.00;99.90
20590;DHT22;10453;50.810;12.540;2023-03-01T22:50:06;-3.00;99.90
20590;DHT22;10453;50.810;12.540;2023-03-01T22:54:24;-3.00;99.90
20590;DHT22;10453;50.810;12.540;2023-03-01T22:58:41;-3.10;99.90
20590;DHT22;10453;50.810;12.540;2023-03-01T23:02:59;-3.10;99.90
20590;DHT22;10453;50.810;12.540;2023-03-01T23:07:16;-3.00;99.90
20590;DHT22;10453;50.810;12.540;2023-03-01T23:11:33;-3.10;99.90
20590;DHT22;10453;50.810;12.540;2023-03-01T23:15:55;-3.20;99.90
20590;DHT22;10453;50.810;12.540;2023-03-01T23:20:12;-3.20;99.90
20590;DHT22;10453;50.810;12.540;2023-03-01T23:24:32;-3.20;99.90
20590;DHT22;10453;50.810;12.540;2023-03-01T23:28:50;-3.20;99.90
20590;DHT22;10453;50.810;12.540;2023-03-01T23:33:07;-3.20;99.90
20590;DHT22;10453;50.810;12.540;2023-03-01T23:37:29;-3.20;99.90
20590;DHT22;10453;50.810;12.540;2023-03-01T23:41:46;-3.20;99.90
20590;DHT22;10453;50.810;12.540;2023-03-01T23:46:03;-3.30;99.90
20590;DHT22;10453;50.810;12.540;2023-03-01T23:50:21;-3.30;99.90
20590;DHT22;10453;50.810;12.540;2023-03-01T23:54:40;-3.40;99.90
20590;DHT22;10453;50.810;12.540;2023-03-01T23:59:02;-3.40;99.90
